Solana Beach, California
Current Conditions -  °F | °C
As of 12:55 PM on Saturday 22 Nov 2014 (Local Time) from KNKX Reporting Station
Scattered Clouds Scattered Clouds  
Wind Chill: 71°   Ceiling: Unl
Heat Index: 71°   Visibility: 10mi
Dew Point: 44°   Wind: 8mph
Humidity: 38%   Direction: 310°NW
Pressure: 30.06"   Gusts: NA
Location:  32.98°N, 117.27°W
Report Text: KNKX 222055Z 31007KT 10SM SCT200 22/07 A3006 RMK AO2 SLP174 T02170067 58016 $
Loading
Personal Weather Stations






























Interactive Weather Map New forecast layout! Learn more

10-Day Weather Forecast

Advertisements
Track Severe Weather on mobile